createdAt,value
2022-10-21T00:02:27.457Z,4.67
2022-10-21T00:04:59.541Z,4.70
2022-10-21T00:07:34.733Z,4.72
2022-10-21T00:10:07.641Z,4.74
2022-10-21T00:12:40.307Z,4.73
2022-10-21T00:15:12.596Z,4.73
2022-10-21T00:17:44.766Z,4.74
2022-10-21T00:20:16.857Z,4.75
2022-10-21T00:22:49.096Z,4.75
2022-10-21T00:25:20.971Z,4.76
2022-10-21T00:27:52.921Z,4.72
2022-10-21T00:30:24.908Z,4.70
2022-10-21T00:33:02.068Z,4.70
2022-10-21T00:35:32.014Z,4.68
2022-10-21T00:38:03.856Z,4.69
2022-10-21T00:40:35.793Z,4.68
2022-10-21T00:43:07.632Z,4.66
2022-10-21T00:45:39.791Z,4.61
2022-10-21T00:48:17.264Z,4.57
2022-10-21T00:50:54.812Z,4.51
2022-10-21T00:53:27.903Z,4.42
2022-10-21T00:56:02.769Z,4.31
2022-10-21T00:58:36.539Z,4.23
2022-10-21T01:01:10.014Z,4.22
2022-10-21T01:03:41.984Z,4.21
2022-10-21T01:06:16.438Z,4.21
2022-10-21T01:08:48.629Z,4.25
2022-10-21T01:11:22.512Z,4.34
2022-10-21T01:14:06.528Z,4.38
2022-10-21T01:17:11.576Z,4.52
2022-10-21T01:19:50.831Z,4.52
2022-10-21T01:22:52.505Z,4.54
2022-10-21T01:25:30.356Z,4.58
2022-10-21T01:28:17.153Z,4.56
2022-10-21T01:31:00.534Z,4.56
2022-10-21T01:33:37.924Z,4.57
2022-10-21T01:36:33.723Z,4.58
2022-10-21T01:39:29.481Z,4.62
2022-10-21T01:42:24.892Z,4.62
2022-10-21T01:45:05.519Z,4.57
2022-10-21T01:47:43.126Z,4.52
2022-10-21T01:50:24.016Z,4.51
2022-10-21T01:53:04.896Z,4.47
2022-10-21T01:55:39.060Z,4.40
2022-10-21T01:58:13.875Z,4.37
2022-10-21T02:00:48.266Z,4.39
2022-10-21T02:03:23.242Z,4.36
2022-10-21T02:05:55.525Z,4.37
2022-10-21T02:08:27.563Z,4.39
2022-10-21T02:11:02.570Z,4.42
2022-10-21T02:13:37.399Z,4.39
2022-10-21T02:16:13.256Z,4.44
2022-10-21T02:18:45.412Z,4.44
2022-10-21T02:21:20.998Z,4.48
2022-10-21T02:24:17.096Z,4.49
2022-10-21T02:26:51.044Z,4.50
2022-10-21T02:29:25.651Z,4.52
2022-10-21T02:32:15.117Z,4.53
2022-10-21T02:35:01.640Z,4.53
2022-10-21T02:40:28.997Z,4.53
2022-10-21T02:43:03.840Z,4.51
2022-10-21T02:45:35.970Z,4.47
2022-10-21T02:48:08.030Z,4.46
2022-10-21T02:50:40.275Z,4.44
2022-10-21T02:53:14.264Z,4.46
2022-10-21T02:55:46.100Z,4.46
2022-10-21T02:58:18.077Z,4.49
2022-10-21T03:00:50.293Z,4.48
2022-10-21T03:03:22.536Z,4.49
2022-10-21T03:05:54.482Z,4.51
2022-10-21T03:08:26.476Z,4.51
2022-10-21T03:10:58.545Z,4.52
2022-10-21T03:13:30.737Z,4.48
2022-10-21T03:16:02.672Z,4.45
2022-10-21T03:18:34.924Z,4.48
2022-10-21T03:21:07.046Z,4.44
2022-10-21T03:23:39.239Z,4.45
2022-10-21T03:26:11.177Z,4.42
2022-10-21T03:28:43.145Z,4.42
2022-10-21T03:31:15.140Z,4.35
2022-10-21T03:33:47.076Z,4.33
2022-10-21T03:36:19.235Z,4.33
2022-10-21T03:38:51.280Z,4.35
2022-10-21T03:41:23.142Z,4.33
2022-10-21T03:43:55.331Z,4.35
2022-10-21T03:46:27.310Z,4.37
2022-10-21T03:49:03.007Z,4.40
2022-10-21T03:51:32.881Z,4.42
2022-10-21T03:54:05.074Z,4.44
2022-10-21T03:56:37.153Z,4.45
2022-10-21T03:59:09.200Z,4.47
2022-10-21T04:01:41.670Z,4.50
2022-10-21T04:04:13.812Z,4.47
2022-10-21T04:06:45.817Z,4.48
2022-10-21T04:09:19.264Z,4.47
2022-10-21T04:11:51.867Z,4.51
2022-10-21T04:14:23.935Z,4.50
2022-10-21T04:17:06.505Z,4.51
2022-10-21T04:19:29.647Z,4.61
2022-10-21T04:22:01.794Z,4.65
2022-10-21T04:24:33.679Z,4.67
2022-10-21T04:27:05.662Z,4.69
2022-10-21T04:29:37.849Z,4.69
2022-10-21T04:32:10.176Z,4.73
2022-10-21T04:34:42.137Z,4.70
2022-10-21T04:37:14.308Z,4.66
2022-10-21T04:39:46.462Z,4.64
2022-10-21T04:42:18.545Z,4.64
2022-10-21T04:44:51.133Z,4.66
2022-10-21T04:47:23.036Z,4.63
2022-10-21T04:49:54.932Z,4.64
2022-10-21T04:52:26.869Z,4.65
2022-10-21T04:54:59.173Z,4.68
2022-10-21T04:57:32.805Z,4.69
2022-10-21T05:00:07.587Z,4.71
2022-10-21T05:02:40.151Z,4.72
2022-10-21T05:05:12.463Z,4.74
2022-10-21T05:07:44.461Z,4.78
2022-10-21T05:10:16.654Z,4.82
2022-10-21T05:12:48.854Z,4.89
2022-10-21T05:15:21.216Z,4.91
2022-10-21T05:17:56.058Z,4.97
2022-10-21T05:20:28.281Z,5.00
2022-10-21T05:23:00.398Z,5.06
2022-10-21T05:25:34.371Z,5.11
2022-10-21T05:28:06.722Z,5.18
2022-10-21T05:30:38.867Z,5.28
2022-10-21T05:33:10.945Z,5.33
2022-10-21T05:35:43.128Z,5.36
2022-10-21T05:38:15.243Z,5.35
2022-10-21T05:40:48.127Z,5.36
2022-10-21T05:43:20.521Z,5.40
2022-10-21T05:45:52.927Z,5.46
2022-10-21T05:48:25.800Z,5.51
2022-10-21T05:50:57.821Z,5.60
2022-10-21T05:53:29.862Z,5.73
2022-10-21T05:56:04.059Z,5.84
2022-10-21T05:58:36.850Z,5.89
2022-10-21T06:01:08.896Z,5.91
2022-10-21T06:03:41.159Z,5.95
2022-10-21T06:06:13.271Z,5.96
2022-10-21T06:08:45.172Z,5.98
2022-10-21T06:11:19.000Z,5.99
2022-10-21T06:13:51.016Z,6.01
2022-10-21T06:16:22.666Z,6.24
2022-10-21T06:18:54.818Z,6.21
2022-10-21T06:21:27.432Z,6.25
2022-10-21T06:23:59.677Z,6.30
2022-10-21T06:26:34.611Z,6.35
2022-10-21T06:29:06.100Z,6.42
2022-10-21T06:31:38.413Z,6.46
2022-10-21T06:34:10.523Z,6.47
2022-10-21T06:36:42.730Z,6.54
2022-10-21T06:39:14.890Z,6.65
2022-10-21T06:41:47.184Z,6.74
2022-10-21T06:44:21.367Z,6.70
2022-10-21T06:46:54.282Z,6.67
2022-10-21T06:49:26.612Z,6.81
2022-10-21T06:51:58.519Z,6.98
2022-10-21T06:54:30.905Z,7.19
2022-10-21T06:57:04.801Z,7.32
2022-10-21T06:59:36.869Z,7.40
2022-10-21T07:02:10.428Z,7.41
2022-10-21T07:04:44.991Z,7.42
2022-10-21T07:07:17.684Z,7.44
2022-10-21T07:09:50.057Z,7.49
2022-10-21T07:12:22.186Z,7.54
2022-10-21T07:14:54.545Z,7.56
2022-10-21T07:17:26.889Z,7.52
2022-10-21T07:19:59.066Z,7.44
2022-10-21T07:22:32.151Z,7.41
2022-10-21T07:25:04.569Z,7.42
2022-10-21T07:27:37.152Z,7.41
2022-10-21T07:30:10.335Z,7.44
2022-10-21T07:32:42.353Z,7.50
2022-10-21T07:35:15.130Z,7.57
2022-10-21T07:37:47.681Z,7.66
2022-10-21T07:40:20.066Z,7.76
2022-10-21T07:42:52.420Z,7.86
2022-10-21T07:45:24.493Z,7.99
2022-10-21T07:47:56.773Z,8.10
2022-10-21T07:50:28.859Z,8.14
2022-10-21T07:53:10.940Z,8.15
2022-10-21T07:55:35.258Z,8.08
2022-10-21T07:58:07.486Z,8.00
2022-10-21T08:00:41.085Z,7.92
2022-10-21T08:03:13.372Z,7.88
2022-10-21T08:05:46.499Z,7.84
2022-10-21T08:08:20.123Z,7.75
2022-10-21T08:10:53.644Z,7.72
2022-10-21T08:13:25.601Z,7.72
2022-10-21T08:15:57.788Z,7.73
2022-10-21T08:18:30.373Z,7.76
2022-10-21T08:21:04.439Z,7.80
2022-10-21T08:23:38.518Z,7.80
2022-10-21T08:26:13.078Z,7.84
2022-10-21T08:28:45.564Z,7.84
2022-10-21T08:31:20.451Z,7.91
2022-10-21T08:33:52.694Z,7.99
2022-10-21T08:36:26.830Z,8.03
2022-10-21T08:38:59.840Z,8.05
2022-10-21T08:41:37.689Z,8.07
2022-10-21T08:44:27.383Z,8.12
2022-10-21T08:47:05.622Z,8.23
2022-10-21T08:49:57.509Z,8.39
2022-10-21T08:52:41.183Z,8.62
2022-10-21T08:55:22.430Z,8.80
2022-10-21T08:57:55.173Z,8.98
2022-10-21T09:00:39.185Z,8.97
2022-10-21T09:03:22.991Z,9.06
2022-10-21T09:06:18.752Z,9.16
2022-10-21T09:09:02.695Z,9.17
2022-10-21T09:11:49.686Z,9.11
2022-10-21T09:14:40.599Z,9.10
2022-10-21T09:17:40.123Z,9.15
2022-10-21T09:20:50.147Z,9.14
2022-10-21T09:23:43.505Z,9.09
2022-10-21T09:26:30.618Z,8.97
2022-10-21T09:29:23.578Z,8.90
2022-10-21T09:32:02.389Z,8.99
2022-10-21T09:34:50.277Z,9.16
2022-10-21T09:37:31.642Z,9.30
2022-10-21T09:40:13.468Z,9.39
2022-10-21T09:42:48.059Z,9.42
2022-10-21T09:45:35.282Z,9.42
2022-10-21T09:48:10.285Z,9.43
2022-10-21T09:50:42.801Z,9.48
2022-10-21T09:53:47.726Z,9.54
2022-10-21T09:56:34.902Z,9.47
2022-10-21T09:59:12.728Z,9.39
2022-10-21T10:01:45.929Z,9.30
2022-10-21T10:04:33.410Z,9.24
2022-10-21T10:07:23.433Z,9.25
2022-10-21T10:09:55.505Z,9.38
2022-10-21T10:12:29.409Z,9.53
2022-10-21T10:15:21.022Z,9.65
2022-10-21T10:17:54.448Z,9.69
2022-10-21T10:20:26.480Z,9.72
2022-10-21T10:23:07.788Z,9.67
2022-10-21T10:25:41.223Z,9.72
2022-10-21T10:28:16.126Z,9.79
2022-10-21T10:30:53.765Z,9.86
2022-10-21T10:33:29.429Z,9.89
2022-10-21T10:36:09.541Z,9.91
2022-10-21T10:38:47.231Z,9.93
2022-10-21T10:41:19.865Z,10.04
2022-10-21T10:43:54.900Z,10.19
2022-10-21T10:46:32.887Z,10.29
2022-10-21T10:49:21.577Z,10.35
2022-10-21T10:52:14.188Z,10.33
2022-10-21T10:54:46.642Z,10.27
2022-10-21T10:57:38.995Z,10.08
2022-10-21T11:00:07.266Z,9.88
2022-10-21T11:02:45.248Z,9.74
2022-10-21T11:05:26.103Z,9.65
2022-10-21T11:08:17.232Z,9.60
2022-10-21T11:11:07.253Z,9.62
2022-10-21T11:13:42.201Z,9.62
2022-10-21T11:16:45.145Z,9.58
2022-10-21T11:19:37.307Z,9.61
2022-10-21T11:22:14.812Z,9.44
2022-10-21T11:24:59.780Z,9.34
2022-10-21T11:28:02.995Z,9.26
2022-10-21T11:30:38.273Z,9.16
2022-10-21T11:33:24.749Z,9.14
2022-10-21T11:36:23.811Z,9.09
2022-10-21T11:39:17.249Z,9.08
2022-10-21T11:41:57.429Z,9.06
2022-10-21T11:45:06.787Z,9.00
2022-10-21T11:47:45.683Z,8.97
2022-10-21T11:50:32.666Z,9.01
2022-10-21T11:53:28.240Z,9.12
2022-10-21T11:56:09.161Z,9.26
2022-10-21T11:59:17.500Z,9.41
2022-10-21T12:02:15.128Z,9.53
2022-10-21T12:05:24.946Z,9.55
2022-10-21T12:08:23.589Z,9.42
2022-10-21T12:11:07.464Z,9.21
2022-10-21T12:13:48.668Z,9.13
2022-10-21T12:16:24.001Z,9.06
2022-10-21T12:19:00.505Z,8.96
2022-10-21T12:21:35.460Z,8.85
2022-10-21T12:24:34.067Z,8.80
2022-10-21T12:27:14.692Z,8.77
2022-10-21T12:30:05.913Z,8.82
2022-10-21T12:32:47.288Z,8.82
2022-10-21T12:35:52.957Z,8.81
2022-10-21T12:38:46.202Z,8.79
2022-10-21T12:41:30.625Z,8.74
2022-10-21T12:44:08.266Z,8.73
2022-10-21T12:46:55.208Z,8.71
2022-10-21T12:49:32.044Z,8.71
2022-10-21T12:52:12.807Z,8.70
2022-10-21T12:54:59.787Z,8.67
2022-10-21T12:57:37.445Z,8.60
2022-10-21T13:00:30.242Z,8.61
2022-10-21T13:03:16.288Z,8.60
2022-10-21T13:05:51.398Z,8.55
2022-10-21T13:08:27.874Z,8.55
2022-10-21T13:11:09.152Z,8.52
2022-10-21T13:13:48.242Z,8.52
2022-10-21T13:16:24.006Z,8.49
2022-10-21T13:19:03.570Z,8.44
2022-10-21T13:21:41.541Z,8.41
2022-10-21T13:24:17.957Z,8.36
2022-10-21T13:26:58.968Z,8.30
2022-10-21T13:29:43.503Z,8.23
2022-10-21T13:32:30.312Z,8.19
2022-10-21T13:35:22.159Z,8.16
2022-10-21T13:38:09.593Z,8.13
2022-10-21T13:40:54.893Z,8.08
2022-10-21T13:43:42.494Z,8.00
2022-10-21T13:46:17.944Z,7.95
2022-10-21T13:48:51.257Z,7.91
2022-10-21T13:51:29.737Z,7.86
2022-10-21T13:54:11.041Z,7.83
2022-10-21T13:56:44.537Z,7.80
2022-10-21T13:59:32.275Z,7.82
2022-10-21T14:02:07.238Z,7.83
2022-10-21T14:04:41.202Z,7.91
2022-10-21T14:07:19.747Z,7.90
2022-10-21T14:09:59.143Z,7.88
2022-10-21T14:12:40.350Z,7.87
2022-10-21T14:15:22.155Z,7.92
2022-10-21T14:17:58.389Z,7.94
2022-10-21T14:20:34.163Z,7.98
2022-10-21T14:23:09.785Z,7.94
2022-10-21T14:25:42.689Z,7.96
2022-10-21T14:28:15.357Z,7.91
2022-10-21T14:30:48.803Z,7.87
2022-10-21T14:33:22.729Z,7.88
2022-10-21T14:36:15.935Z,8.07
2022-10-21T14:39:00.888Z,7.96
2022-10-21T14:41:35.704Z,7.93
2022-10-21T14:44:19.651Z,7.93
2022-10-21T14:46:55.178Z,7.92
2022-10-21T14:49:32.924Z,7.92
2022-10-21T14:52:08.073Z,7.94
2022-10-21T14:54:57.910Z,7.98
2022-10-21T14:57:48.722Z,8.02
2022-10-21T15:00:31.957Z,8.04
2022-10-21T15:03:04.845Z,8.08
2022-10-21T15:05:47.867Z,8.08
2022-10-21T15:08:24.990Z,8.08
2022-10-21T15:11:11.717Z,8.11
2022-10-21T15:13:48.555Z,8.14
2022-10-21T15:16:22.378Z,8.11
2022-10-21T15:18:59.884Z,8.10
2022-10-21T15:21:35.608Z,8.11
2022-10-21T15:24:08.903Z,8.12
2022-10-21T15:26:43.067Z,8.12
2022-10-21T15:29:29.730Z,8.10
2022-10-21T15:32:02.518Z,8.11
2022-10-21T15:34:34.659Z,8.07
2022-10-21T15:37:07.483Z,8.01
2022-10-21T15:39:41.362Z,7.96
2022-10-21T15:42:17.977Z,8.03
2022-10-21T15:44:51.522Z,7.78
2022-10-21T15:47:25.764Z,7.70
2022-10-21T15:49:59.967Z,7.64
2022-10-21T15:52:33.787Z,7.64
2022-10-21T15:55:09.976Z,7.65
2022-10-21T15:57:42.368Z,7.59
2022-10-21T16:00:20.121Z,7.68
2022-10-21T16:02:53.477Z,7.37
2022-10-21T16:05:26.894Z,7.23
2022-10-21T16:08:00.507Z,7.16
2022-10-21T16:10:41.257Z,7.05
2022-10-21T16:13:13.718Z,6.94
2022-10-21T16:15:45.879Z,6.83
2022-10-21T16:18:19.776Z,6.78
2022-10-21T16:20:54.216Z,6.75
2022-10-21T16:23:26.532Z,6.77
2022-10-21T16:25:58.654Z,6.81
2022-10-21T16:28:30.721Z,6.89
2022-10-21T16:31:04.895Z,6.94
2022-10-21T16:33:37.239Z,7.02
2022-10-21T16:36:18.374Z,7.11
2022-10-21T16:38:52.059Z,7.11
2022-10-21T16:41:28.815Z,7.10
2022-10-21T16:44:01.174Z,7.13
2022-10-21T16:46:36.412Z,7.15
2022-10-21T16:49:17.032Z,7.17
2022-10-21T16:51:51.926Z,7.16
2022-10-21T16:54:25.112Z,7.15
2022-10-21T16:56:58.079Z,7.18
2022-10-21T16:59:30.864Z,7.19
2022-10-21T17:02:03.928Z,7.22
2022-10-21T17:04:36.238Z,7.26
2022-10-21T17:07:08.557Z,7.25
2022-10-21T17:09:40.874Z,7.26
2022-10-21T17:12:14.368Z,7.26
2022-10-21T17:14:48.276Z,7.30
2022-10-21T17:17:22.459Z,7.34
2022-10-21T17:19:54.071Z,7.28
2022-10-21T17:22:26.190Z,7.42
2022-10-21T17:24:58.377Z,7.23
2022-10-21T17:27:30.373Z,7.17
2022-10-21T17:30:02.286Z,7.14
2022-10-21T17:32:34.838Z,7.13
2022-10-21T17:35:07.555Z,7.09
2022-10-21T17:37:39.969Z,7.07
2022-10-21T17:40:17.748Z,7.01
2022-10-21T17:42:50.634Z,6.99
2022-10-21T17:45:23.411Z,6.99
2022-10-21T17:47:55.459Z,6.96
2022-10-21T17:50:27.439Z,6.94
2022-10-21T17:52:59.651Z,6.97
2022-10-21T17:55:31.807Z,6.95
2022-10-21T17:58:03.740Z,6.98
2022-10-21T18:00:36.117Z,7.03
2022-10-21T18:03:08.778Z,7.04
2022-10-21T18:05:42.696Z,7.09
2022-10-21T18:08:14.596Z,7.12
2022-10-21T18:10:55.577Z,7.15
2022-10-21T18:13:30.069Z,7.20
2022-10-21T18:16:10.644Z,7.17
2022-10-21T18:18:43.366Z,7.20
2022-10-21T18:21:21.332Z,7.20
2022-10-21T18:23:54.631Z,7.15
2022-10-21T18:26:29.856Z,7.17
2022-10-21T18:29:03.642Z,7.18
2022-10-21T18:31:37.789Z,7.22
2022-10-21T18:34:10.028Z,7.22
2022-10-21T18:36:43.321Z,7.26
2022-10-21T18:39:15.648Z,7.27
2022-10-21T18:41:47.754Z,7.33
2022-10-21T18:44:19.871Z,7.33
2022-10-21T18:46:55.231Z,7.37
2022-10-21T18:49:25.685Z,7.36
2022-10-21T18:51:57.665Z,7.34
2022-10-21T18:54:29.849Z,7.35
2022-10-21T18:57:01.772Z,7.37
2022-10-21T18:59:33.699Z,7.34
2022-10-21T19:02:05.755Z,7.33
2022-10-21T19:04:37.639Z,7.35
2022-10-21T19:07:09.570Z,7.41
2022-10-21T19:09:41.935Z,7.37
2022-10-21T19:12:17.375Z,7.36
2022-10-21T19:14:48.203Z,7.34
2022-10-21T19:17:20.050Z,7.37
2022-10-21T19:19:52.299Z,7.37
2022-10-21T19:22:26.179Z,7.37
2022-10-21T19:24:58.382Z,7.37
2022-10-21T19:27:30.272Z,7.41
2022-10-21T19:30:02.314Z,7.41
2022-10-21T19:32:34.305Z,7.41
2022-10-21T19:35:06.660Z,7.40
2022-10-21T19:37:38.641Z,7.39
2022-10-21T19:40:11.036Z,7.39
2022-10-21T19:42:43.044Z,7.38
2022-10-21T19:45:16.694Z,7.43
2022-10-21T19:47:48.770Z,7.36
2022-10-21T19:50:20.777Z,7.35
2022-10-21T19:52:52.649Z,7.34
2022-10-21T19:55:24.580Z,7.35
2022-10-21T19:57:56.918Z,7.33
2022-10-21T20:00:28.748Z,7.28
2022-10-21T20:03:00.912Z,7.19
2022-10-21T20:05:34.475Z,7.11
2022-10-21T20:08:06.602Z,7.01
2022-10-21T20:10:38.523Z,6.93
2022-10-21T20:13:10.453Z,6.86
2022-10-21T20:15:45.366Z,6.79
2022-10-21T20:18:17.279Z,6.77
2022-10-21T20:20:49.165Z,6.79
2022-10-21T20:23:21.031Z,6.81
2022-10-21T20:25:55.487Z,6.89
2022-10-21T20:28:26.942Z,6.87
2022-10-21T20:31:07.153Z,7.11
2022-10-21T20:33:41.924Z,6.94
2022-10-21T20:36:24.955Z,6.93
2022-10-21T20:39:00.103Z,6.92
2022-10-21T20:41:37.403Z,6.92
2022-10-21T20:44:11.870Z,6.88
2022-10-21T20:46:44.027Z,6.84
2022-10-21T20:49:16.148Z,6.95
2022-10-21T20:51:48.344Z,6.81
2022-10-21T20:54:22.896Z,6.84
2022-10-21T20:56:54.092Z,6.88
2022-10-21T20:59:26.003Z,7.09
2022-10-21T21:01:57.801Z,7.00
2022-10-21T21:04:29.681Z,7.02
2022-10-21T21:07:01.665Z,7.05
2022-10-21T21:09:57.401Z,7.07
2022-10-21T21:12:07.439Z,7.09
2022-10-21T21:14:39.607Z,7.10
2022-10-21T21:17:11.623Z,7.12
2022-10-21T21:19:43.626Z,7.13
2022-10-21T21:22:15.759Z,7.13
2022-10-21T21:24:48.647Z,7.16
2022-10-21T21:27:20.434Z,7.16
2022-10-21T21:29:52.599Z,7.18
2022-10-21T21:32:24.532Z,7.17
2022-10-21T21:34:56.801Z,7.15
2022-10-21T21:37:29.701Z,7.17
2022-10-21T21:40:01.891Z,7.15
2022-10-21T21:42:33.806Z,7.17
2022-10-21T21:45:06.320Z,7.16
2022-10-21T21:47:38.581Z,7.19
2022-10-21T21:50:10.943Z,7.18
2022-10-21T21:52:43.746Z,7.20
2022-10-21T21:55:16.002Z,7.21
2022-10-21T21:57:47.921Z,7.20
2022-10-21T22:00:19.948Z,7.21
2022-10-21T22:02:51.927Z,7.21
2022-10-21T22:05:27.055Z,7.22
2022-10-21T22:08:00.807Z,7.22
2022-10-21T22:10:32.753Z,7.23
2022-10-21T22:13:04.735Z,7.23
2022-10-21T22:15:47.768Z,7.22
2022-10-21T22:18:11.424Z,7.22
2022-10-21T22:20:43.585Z,7.24
2022-10-21T22:23:16.695Z,7.25
2022-10-21T22:25:49.650Z,7.27
2022-10-21T22:28:21.691Z,7.24
2022-10-21T22:30:59.320Z,7.22
2022-10-21T22:33:31.953Z,7.23
2022-10-21T22:36:04.950Z,7.24
2022-10-21T22:38:37.723Z,7.27
2022-10-21T22:41:12.473Z,7.26
2022-10-21T22:43:43.469Z,7.28
2022-10-21T22:48:49.512Z,7.30
2022-10-21T22:51:21.643Z,7.33
2022-10-21T22:53:56.777Z,7.35
2022-10-21T22:56:28.226Z,7.37
2022-10-21T22:59:00.677Z,7.39
2022-10-21T23:01:32.703Z,7.38
2022-10-21T23:04:05.622Z,7.39
2022-10-21T23:06:37.966Z,7.37
2022-10-21T23:09:10.182Z,7.39
2022-10-21T23:11:42.232Z,7.36
2022-10-21T23:14:16.158Z,7.36
2022-10-21T23:16:48.315Z,7.36
2022-10-21T23:19:20.440Z,7.38
2022-10-21T23:21:52.354Z,7.34
2022-10-21T23:24:24.281Z,7.34
2022-10-21T23:26:59.161Z,7.33
2022-10-21T23:29:30.769Z,7.33
2022-10-21T23:32:02.780Z,7.34
2022-10-21T23:34:35.286Z,7.35
2022-10-21T23:37:07.607Z,7.34
2022-10-21T23:39:39.692Z,7.34
2022-10-21T23:42:11.787Z,7.35
2022-10-21T23:44:43.785Z,7.34
2022-10-21T23:47:15.775Z,7.35
2022-10-21T23:49:47.669Z,7.34
2022-10-21T23:52:19.653Z,7.31
2022-10-21T23:54:51.799Z,7.30
2022-10-21T23:57:24.036Z,7.33
2022-10-21T23:59:55.945Z,7.34
